createdAt,value
2023-04-15T00:01:35.485Z,28.81
2023-04-15T00:04:06.508Z,28.84
2023-04-15T00:06:40.435Z,28.89
2023-04-15T00:09:11.262Z,28.91
2023-04-15T00:11:42.184Z,28.95
2023-04-15T00:14:12.464Z,29.00
2023-04-15T00:16:43.173Z,29.08
2023-04-15T00:19:14.139Z,29.12
2023-04-15T00:21:45.180Z,29.14
2023-04-15T00:24:15.979Z,29.20
2023-04-15T00:26:46.589Z,29.28
2023-04-15T00:29:17.450Z,29.42
2023-04-15T00:31:49.032Z,29.52
2023-04-15T00:34:19.351Z,29.62
2023-04-15T00:36:50.594Z,29.65
2023-04-15T00:39:22.631Z,29.74
2023-04-15T00:41:53.640Z,29.69
2023-04-15T00:44:24.805Z,29.79
2023-04-15T00:46:55.830Z,29.87
2023-04-15T00:49:29.648Z,29.94
2023-04-15T00:51:59.978Z,30.03
2023-04-15T00:54:30.272Z,30.06
2023-04-15T00:57:01.697Z,30.14
2023-04-15T00:59:33.239Z,30.17
2023-04-15T01:02:04.100Z,30.27
2023-04-15T01:04:35.061Z,30.30
2023-04-15T01:07:05.943Z,30.35
2023-04-15T01:09:39.298Z,30.39
2023-04-15T01:12:15.090Z,30.36
2023-04-15T01:14:46.402Z,30.38
2023-04-15T01:17:18.745Z,30.37
2023-04-15T01:19:49.216Z,30.39
2023-04-15T01:22:20.677Z,30.39
2023-04-15T01:25:12.459Z,30.44
2023-04-15T01:27:44.452Z,30.52
2023-04-15T01:30:18.375Z,30.60
2023-04-15T01:32:50.492Z,30.70
2023-04-15T01:35:40.760Z,30.80
2023-04-15T01:38:13.645Z,30.70
2023-04-15T01:40:43.788Z,30.65
2023-04-15T01:43:16.417Z,30.61
2023-04-15T01:45:48.881Z,30.71
2023-04-15T01:48:20.988Z,30.79
2023-04-15T01:50:53.135Z,30.88
2023-04-15T01:53:26.901Z,30.97
2023-04-15T01:55:58.891Z,30.93
2023-04-15T01:58:31.326Z,31.04
2023-04-15T02:01:12.303Z,31.14
2023-04-15T02:03:45.727Z,31.20
2023-04-15T02:06:17.472Z,31.24
2023-04-15T02:08:50.377Z,31.14
2023-04-15T02:11:21.879Z,31.20
2023-04-15T02:13:54.026Z,31.26
2023-04-15T02:16:26.573Z,31.30
2023-04-15T02:18:58.436Z,31.35
2023-04-15T02:21:30.203Z,31.40
2023-04-15T02:24:07.421Z,31.49
2023-04-15T02:26:39.543Z,31.51
2023-04-15T02:29:13.595Z,31.63
2023-04-15T02:31:46.098Z,31.69
2023-04-15T02:34:17.980Z,31.68
2023-04-15T02:36:50.694Z,31.76
2023-04-15T02:39:22.682Z,31.82
2023-04-15T02:41:54.496Z,31.86
2023-04-15T02:44:28.502Z,31.94
2023-04-15T02:47:04.457Z,31.98
2023-04-15T02:49:38.688Z,32.02
2023-04-15T02:52:11.248Z,32.06
2023-04-15T02:54:45.928Z,32.12
2023-04-15T02:57:17.577Z,32.15
2023-04-15T02:59:49.561Z,32.20
2023-04-15T03:02:21.598Z,32.28
2023-04-15T03:04:53.797Z,32.31
2023-04-15T03:07:25.522Z,32.38
2023-04-15T03:09:58.008Z,32.44
2023-04-15T03:12:31.294Z,32.47
2023-04-15T03:15:03.368Z,32.55
2023-04-15T03:17:42.389Z,32.57
2023-04-15T03:20:18.149Z,32.61
2023-04-15T03:22:49.886Z,32.63
2023-04-15T03:25:23.798Z,32.61
2023-04-15T03:27:58.097Z,32.61
2023-04-15T03:30:30.636Z,32.62
2023-04-15T03:33:05.150Z,32.67
2023-04-15T03:35:37.270Z,32.77
2023-04-15T03:38:09.195Z,32.85
2023-04-15T03:40:42.673Z,32.91
2023-04-15T03:43:15.303Z,32.90
2023-04-15T03:45:46.950Z,32.94
2023-04-15T03:48:18.583Z,33.06
2023-04-15T03:50:50.217Z,33.06
2023-04-15T03:53:22.841Z,33.08
2023-04-15T03:55:54.456Z,33.13
2023-04-15T03:58:26.825Z,33.18
2023-04-15T04:00:59.866Z,33.18
2023-04-15T04:03:34.939Z,33.23
2023-04-15T04:06:07.286Z,33.27
2023-04-15T04:08:39.930Z,33.28
2023-04-15T04:11:11.566Z,33.36
2023-04-15T04:13:43.594Z,33.33
2023-04-15T04:16:18.610Z,33.37
2023-04-15T04:18:50.352Z,33.39
2023-04-15T04:21:22.690Z,33.27
2023-04-15T04:23:54.283Z,33.12
2023-04-15T04:26:25.922Z,33.00
2023-04-15T04:28:57.654Z,32.89
2023-04-15T04:31:41.585Z,32.89
2023-04-15T04:34:13.972Z,32.87
2023-04-15T04:36:45.711Z,32.82
2023-04-15T04:39:17.342Z,32.79
2023-04-15T04:41:49.360Z,32.78
2023-04-15T04:44:21.176Z,32.79
2023-04-15T04:46:52.806Z,32.80
2023-04-15T04:49:24.459Z,32.79
2023-04-15T04:51:56.414Z,32.83
2023-04-15T04:54:28.763Z,32.85
2023-04-15T04:57:00.442Z,32.88
2023-04-15T04:59:32.591Z,32.92
2023-04-15T05:02:04.811Z,32.94
2023-04-15T05:04:38.658Z,32.97
2023-04-15T05:07:10.860Z,32.96
2023-04-15T05:09:42.879Z,32.99
2023-04-15T05:12:17.777Z,33.19
2023-04-15T05:14:50.088Z,33.42
2023-04-15T05:17:22.976Z,33.58
2023-04-15T05:19:54.881Z,33.77
2023-04-15T05:22:26.551Z,33.86
2023-04-15T05:24:58.598Z,34.01
2023-04-15T05:27:30.502Z,34.13
2023-04-15T05:30:02.822Z,34.20
2023-04-15T05:32:34.431Z,34.36
2023-04-15T05:35:06.669Z,34.40
2023-04-15T05:37:41.082Z,34.52
2023-04-15T05:40:13.351Z,34.62
2023-04-15T05:42:45.779Z,34.70
2023-04-15T05:45:17.372Z,34.80
2023-04-15T05:47:51.792Z,34.84
2023-04-15T05:50:23.838Z,34.84
2023-04-15T05:52:56.396Z,34.97
2023-04-15T05:55:28.490Z,35.00
2023-04-15T05:58:00.050Z,35.07
2023-04-15T06:00:32.138Z,35.14
2023-04-15T06:03:04.210Z,35.19
2023-04-15T06:05:35.694Z,35.26
2023-04-15T06:08:07.801Z,35.37
2023-04-15T06:10:39.753Z,35.42
2023-04-15T06:13:14.660Z,35.43
2023-04-15T06:15:46.332Z,35.47
2023-04-15T06:18:19.148Z,35.49
2023-04-15T06:20:51.871Z,35.42
2023-04-15T06:23:24.080Z,35.37
2023-04-15T06:25:56.614Z,35.37
2023-04-15T06:28:30.614Z,35.17
2023-04-15T06:31:02.906Z,35.22
2023-04-15T06:33:35.504Z,35.13
2023-04-15T06:36:07.700Z,35.13
2023-04-15T06:38:39.536Z,35.11
2023-04-15T06:41:14.503Z,35.02
2023-04-15T06:43:46.404Z,35.09
2023-04-15T06:46:18.423Z,35.17
2023-04-15T06:48:50.424Z,35.23
2023-04-15T06:51:23.221Z,35.25
2023-04-15T06:53:55.876Z,35.36
2023-04-15T06:56:28.060Z,35.17
2023-04-15T06:59:00.650Z,35.01
2023-04-15T07:01:33.006Z,34.95
2023-04-15T07:04:05.000Z,34.94
2023-04-15T07:06:36.697Z,34.90
2023-04-15T07:09:11.667Z,34.96
2023-04-15T07:11:44.227Z,35.02
2023-04-15T07:14:18.238Z,35.17
2023-04-15T07:16:56.047Z,35.24
2023-04-15T07:19:28.892Z,35.37
2023-04-15T07:22:00.924Z,35.33
2023-04-15T07:24:33.293Z,35.25
2023-04-15T07:27:05.270Z,35.21
2023-04-15T07:29:37.180Z,35.23
2023-04-15T07:32:11.489Z,35.25
2023-04-15T07:34:44.064Z,35.21
2023-04-15T07:37:17.458Z,35.22
2023-04-15T07:39:52.196Z,35.23
2023-04-15T07:42:24.565Z,35.26
2023-04-15T07:44:56.592Z,35.22
2023-04-15T07:47:28.679Z,35.22
2023-04-15T07:50:01.088Z,35.25
2023-04-15T07:52:36.168Z,35.13
2023-04-15T07:55:11.800Z,35.10
2023-04-15T07:57:46.087Z,34.99
2023-04-15T08:00:19.245Z,34.89
2023-04-15T08:02:53.738Z,34.77
2023-04-15T08:05:26.740Z,34.68
2023-04-15T08:07:59.638Z,34.61
2023-04-15T08:10:32.463Z,34.49
2023-04-15T08:13:06.958Z,34.38
2023-04-15T08:15:41.887Z,34.35
2023-04-15T08:18:16.411Z,34.26
2023-04-15T08:20:48.660Z,34.28
2023-04-15T08:23:20.792Z,34.26
2023-04-15T08:25:53.054Z,34.19
2023-04-15T08:28:25.623Z,34.22
2023-04-15T08:30:58.493Z,34.19
2023-04-15T08:33:31.154Z,34.14
2023-04-15T08:36:03.214Z,34.11
2023-04-15T08:38:35.574Z,34.11
2023-04-15T08:41:27.349Z,34.12
2023-04-15T08:44:02.178Z,34.09
2023-04-15T08:46:37.552Z,34.06
2023-04-15T08:49:16.775Z,34.09
2023-04-15T08:51:51.229Z,34.04
2023-04-15T08:54:26.757Z,34.00
2023-04-15T08:56:59.824Z,34.04
2023-04-15T08:59:34.844Z,34.04
2023-04-15T09:02:06.880Z,34.03
2023-04-15T09:04:38.801Z,34.04
2023-04-15T09:07:11.385Z,33.97
2023-04-15T09:09:43.584Z,33.98
2023-04-15T09:12:15.384Z,33.94
2023-04-15T09:14:49.120Z,33.83
2023-04-15T09:17:27.691Z,33.71
2023-04-15T09:20:14.681Z,33.68
2023-04-15T09:22:48.685Z,33.63
2023-04-15T09:25:27.889Z,33.60
2023-04-15T09:28:02.888Z,33.51
2023-04-15T09:30:35.779Z,33.55
2023-04-15T09:33:09.649Z,33.46
2023-04-15T09:35:44.974Z,33.44
2023-04-15T09:38:17.389Z,33.37
2023-04-15T09:40:49.057Z,33.23
2023-04-15T09:43:21.482Z,33.24
2023-04-15T09:45:54.727Z,33.22
2023-04-15T09:48:29.188Z,33.17
2023-04-15T09:51:02.550Z,33.15
2023-04-15T09:53:37.092Z,33.09
2023-04-15T09:56:10.203Z,33.04
2023-04-15T09:58:43.897Z,33.01
2023-04-15T10:01:16.839Z,32.94
2023-04-15T10:03:49.315Z,32.89
2023-04-15T10:06:21.716Z,32.80
2023-04-15T10:08:54.001Z,32.78
2023-04-15T10:11:26.605Z,32.77
2023-04-15T10:13:59.364Z,32.73
2023-04-15T10:16:35.089Z,32.69
2023-04-15T10:19:09.422Z,32.67
2023-04-15T10:21:42.420Z,32.67
2023-04-15T10:24:14.984Z,32.60
2023-04-15T10:27:07.860Z,32.54
2023-04-15T10:29:40.312Z,32.54
2023-04-15T10:32:12.384Z,32.54
2023-04-15T10:34:47.437Z,32.53
2023-04-15T10:37:38.673Z,32.56
2023-04-15T10:40:34.526Z,32.53
2023-04-15T10:43:07.653Z,32.46
2023-04-15T10:45:39.582Z,32.45
2023-04-15T10:48:14.162Z,32.44
2023-04-15T10:50:58.424Z,32.45
2023-04-15T10:53:32.575Z,32.40
2023-04-15T10:56:06.554Z,32.39
2023-04-15T10:58:45.333Z,32.37
2023-04-15T11:01:17.139Z,32.35
2023-04-15T11:03:54.268Z,32.32
2023-04-15T11:06:49.148Z,32.35
2023-04-15T11:09:35.492Z,32.34
2023-04-15T11:12:11.487Z,32.25
2023-04-15T11:14:44.500Z,32.23
2023-04-15T11:17:16.934Z,32.20
2023-04-15T11:19:48.885Z,32.18
2023-04-15T11:22:21.903Z,32.14
2023-04-15T11:24:54.282Z,32.13
2023-04-15T11:27:26.012Z,32.14
2023-04-15T11:29:57.901Z,32.09
2023-04-15T11:32:29.981Z,32.09
2023-04-15T11:35:02.483Z,32.06
2023-04-15T11:37:34.944Z,32.07
2023-04-15T11:40:08.642Z,32.03
2023-04-15T11:42:49.697Z,32.03
2023-04-15T11:45:22.788Z,32.00
2023-04-15T11:47:55.401Z,31.98
2023-04-15T11:50:28.198Z,31.98
2023-04-15T11:53:01.188Z,31.97
2023-04-15T11:55:32.377Z,31.95
2023-04-15T11:58:10.662Z,31.93
2023-04-15T12:00:42.169Z,31.92
2023-04-15T12:03:21.185Z,31.90
2023-04-15T12:06:14.422Z,31.84
2023-04-15T12:09:01.983Z,31.90
2023-04-15T12:11:38.821Z,31.90
2023-04-15T12:14:12.145Z,31.92
2023-04-15T12:16:51.619Z,31.89
2023-04-15T12:19:33.600Z,31.95
2023-04-15T12:22:11.039Z,31.94
2023-04-15T12:24:43.470Z,31.92
2023-04-15T12:27:15.627Z,31.94
2023-04-15T12:29:46.082Z,31.88
2023-04-15T12:32:21.810Z,31.90
2023-04-15T12:34:59.000Z,31.85
2023-04-15T12:37:29.892Z,31.85
2023-04-15T12:40:00.369Z,31.86
2023-04-15T12:42:31.248Z,31.87
2023-04-15T12:45:01.844Z,31.86
2023-04-15T12:47:32.715Z,31.85
2023-04-15T12:50:03.814Z,31.82
2023-04-15T12:52:35.577Z,31.85
2023-04-15T12:55:09.384Z,31.79
2023-04-15T12:57:40.735Z,31.75
2023-04-15T13:00:14.880Z,31.78
2023-04-15T13:02:46.029Z,31.73
2023-04-15T13:05:16.881Z,31.74
2023-04-15T13:07:48.128Z,31.70
2023-04-15T13:10:27.413Z,31.76
2023-04-15T13:13:00.723Z,31.76
2023-04-15T13:15:31.878Z,31.69
2023-04-15T13:18:03.067Z,31.68
2023-04-15T13:20:33.658Z,31.66
2023-04-15T13:23:04.139Z,31.73
2023-04-15T13:25:34.833Z,31.63
2023-04-15T13:28:05.878Z,31.62
2023-04-15T13:30:36.551Z,31.65
2023-04-15T13:33:07.969Z,31.62
2023-04-15T13:35:38.482Z,31.52
2023-04-15T13:38:08.950Z,31.57
2023-04-15T13:40:40.498Z,31.60
2023-04-15T13:43:11.329Z,31.61
2023-04-15T13:45:42.297Z,31.61
2023-04-15T13:48:13.414Z,31.65
2023-04-15T13:50:46.443Z,31.65
2023-04-15T13:53:21.558Z,31.71
2023-04-15T13:56:06.344Z,31.68
2023-04-15T13:58:37.289Z,31.72
2023-04-15T14:01:08.159Z,31.70
2023-04-15T14:03:41.842Z,31.73
2023-04-15T14:06:12.853Z,31.69
2023-04-15T14:08:43.729Z,31.65
2023-04-15T14:11:14.523Z,31.64
2023-04-15T14:13:45.181Z,31.73
2023-04-15T14:16:16.372Z,31.70
2023-04-15T14:18:47.170Z,31.67
2023-04-15T14:21:17.905Z,31.65
2023-04-15T14:23:49.582Z,31.65
2023-04-15T14:26:20.956Z,31.62
2023-04-15T14:28:52.315Z,31.65
2023-04-15T14:31:22.901Z,31.61
2023-04-15T14:33:54.184Z,31.64
2023-04-15T14:36:24.837Z,31.62
2023-04-15T14:38:55.641Z,31.62
2023-04-15T14:41:26.102Z,31.60
2023-04-15T14:43:57.604Z,31.60
2023-04-15T14:46:28.342Z,31.61
2023-04-15T14:48:59.134Z,31.61
2023-04-15T14:51:29.545Z,31.61
2023-04-15T14:54:00.332Z,31.61
2023-04-15T14:56:30.740Z,31.62
2023-04-15T14:59:01.713Z,31.58
2023-04-15T15:01:32.853Z,31.58
2023-04-15T15:04:04.440Z,31.61
2023-04-15T15:06:36.646Z,31.56
2023-04-15T15:09:07.483Z,31.57
2023-04-15T15:11:37.879Z,31.59
2023-04-15T15:14:08.251Z,31.61
2023-04-15T15:16:41.690Z,31.60
2023-04-15T15:19:12.435Z,31.58
2023-04-15T15:21:43.311Z,31.58
2023-04-15T15:24:13.663Z,31.57
2023-04-15T15:26:47.031Z,31.56
2023-04-15T15:29:18.318Z,31.56
2023-04-15T15:31:49.823Z,31.58
2023-04-15T15:34:21.618Z,31.54
2023-04-15T15:36:55.585Z,31.53
2023-04-15T15:39:26.036Z,31.55
2023-04-15T15:41:56.811Z,31.53
2023-04-15T15:44:27.163Z,31.50
2023-04-15T15:46:57.801Z,31.52
2023-04-15T15:49:29.303Z,31.50
2023-04-15T15:52:00.141Z,31.49
2023-04-15T15:54:31.340Z,31.49
2023-04-15T15:57:02.657Z,31.48
2023-04-15T15:59:34.170Z,31.44
2023-04-15T16:02:05.972Z,31.41
2023-04-15T16:04:38.556Z,31.43
2023-04-15T16:07:08.703Z,31.41
2023-04-15T16:09:38.957Z,31.41
2023-04-15T16:12:09.994Z,31.40
2023-04-15T16:14:40.974Z,31.39
2023-04-15T16:17:11.898Z,31.38
2023-04-15T16:19:42.633Z,31.39
2023-04-15T16:22:29.694Z,31.35
2023-04-15T16:25:00.824Z,31.36
2023-04-15T16:27:31.429Z,31.33
2023-04-15T16:30:02.172Z,31.32
2023-04-15T16:32:33.221Z,31.32
2023-04-15T16:35:05.174Z,31.31
2023-04-15T16:37:40.861Z,31.29
2023-04-15T16:40:11.739Z,31.28
2023-04-15T16:42:44.552Z,31.25
2023-04-15T16:45:17.252Z,31.23
2023-04-15T16:47:48.237Z,31.22
2023-04-15T16:50:18.790Z,31.21
2023-04-15T16:52:49.183Z,31.19
2023-04-15T16:55:20.013Z,31.17
2023-04-15T16:58:02.185Z,31.16
2023-04-15T17:00:37.042Z,31.14
2023-04-15T17:03:08.286Z,31.13
2023-04-15T17:05:39.756Z,31.11
2023-04-15T17:08:10.550Z,31.10
2023-04-15T17:10:41.348Z,31.08
2023-04-15T17:13:12.672Z,31.07
2023-04-15T17:15:45.080Z,31.04
2023-04-15T17:18:29.241Z,31.04
2023-04-15T17:21:11.690Z,31.03
2023-04-15T17:23:43.887Z,31.02
2023-04-15T17:26:15.282Z,31.00
2023-04-15T17:28:46.894Z,30.98
2023-04-15T17:31:23.153Z,30.97
2023-04-15T17:34:03.600Z,30.99
2023-04-15T17:36:57.697Z,30.97
2023-04-15T17:39:48.229Z,30.94
2023-04-15T17:42:41.082Z,30.90
2023-04-15T17:45:32.255Z,30.93
2023-04-15T17:48:23.822Z,30.90
2023-04-15T17:51:14.295Z,30.91
2023-04-15T17:54:05.819Z,30.91
2023-04-15T17:56:57.599Z,30.87
2023-04-15T17:59:50.504Z,30.86
2023-04-15T18:02:41.667Z,30.84
2023-04-15T18:05:32.260Z,30.86
2023-04-15T18:08:22.678Z,30.82
2023-04-15T18:11:13.434Z,30.82
2023-04-15T18:14:06.891Z,30.81
2023-04-15T18:16:57.698Z,30.79
2023-04-15T18:19:48.322Z,30.78
2023-04-15T18:22:19.260Z,30.78
2023-04-15T18:24:52.536Z,30.74
2023-04-15T18:27:22.986Z,30.76
2023-04-15T18:29:53.368Z,30.72
2023-04-15T18:32:24.071Z,30.73
2023-04-15T18:34:56.500Z,30.73
2023-04-15T18:37:30.260Z,30.71
2023-04-15T18:40:01.088Z,30.68
2023-04-15T18:42:31.831Z,30.71
2023-04-15T18:45:04.685Z,30.65
2023-04-15T18:47:35.087Z,30.67
2023-04-15T18:50:05.708Z,30.67
2023-04-15T18:52:36.088Z,30.66
2023-04-15T18:55:07.142Z,30.65
2023-04-15T18:57:43.358Z,30.62
2023-04-15T19:00:16.772Z,30.60
2023-04-15T19:02:47.636Z,30.60
2023-04-15T19:05:18.408Z,30.60
2023-04-15T19:07:49.071Z,30.59
2023-04-15T19:10:19.699Z,30.59
2023-04-15T19:12:50.242Z,30.58
2023-04-15T19:15:20.603Z,30.56
2023-04-15T19:17:54.233Z,30.56
2023-04-15T19:20:24.655Z,30.55
2023-04-15T19:22:57.081Z,30.54
2023-04-15T19:25:27.776Z,30.55
2023-04-15T19:27:59.948Z,30.53
2023-04-15T19:30:33.378Z,30.54
2023-04-15T19:33:06.449Z,30.52
2023-04-15T19:35:37.092Z,30.47
2023-04-15T19:38:09.152Z,30.44
2023-04-15T19:40:39.440Z,30.43
2023-04-15T19:43:09.656Z,30.44
2023-04-15T19:45:40.405Z,30.40
2023-04-15T19:48:11.106Z,30.39
2023-04-15T19:50:42.337Z,30.38
2023-04-15T19:53:12.955Z,30.38
2023-04-15T19:55:43.297Z,30.38
2023-04-15T19:58:14.035Z,30.35
2023-04-15T20:00:45.072Z,30.36
2023-04-15T20:03:18.567Z,30.37
2023-04-15T20:05:49.367Z,30.36
2023-04-15T20:08:19.976Z,30.35
2023-04-15T20:10:50.752Z,30.35
2023-04-15T20:13:21.589Z,30.31
2023-04-15T20:15:52.227Z,30.33
2023-04-15T20:18:22.648Z,30.34
2023-04-15T20:20:52.932Z,30.32
2023-04-15T20:23:23.500Z,30.32
2023-04-15T20:25:53.892Z,30.29
2023-04-15T20:28:27.089Z,30.28
2023-04-15T20:30:58.337Z,30.28
2023-04-15T20:33:29.429Z,30.29
2023-04-15T20:36:00.660Z,30.29
2023-04-15T20:38:31.715Z,30.28
2023-04-15T20:41:02.030Z,30.29
2023-04-15T20:43:32.725Z,30.28
2023-04-15T20:46:17.347Z,30.28
2023-04-15T20:48:51.361Z,30.24
2023-04-15T20:51:21.774Z,30.25
2023-04-15T20:53:52.201Z,30.26
2023-04-15T20:56:22.960Z,30.22
2023-04-15T20:58:54.284Z,30.23
2023-04-15T21:01:28.794Z,30.23
2023-04-15T21:04:00.260Z,30.20
2023-04-15T21:06:30.940Z,30.22
2023-04-15T21:09:04.467Z,30.22
2023-04-15T21:11:46.461Z,30.20
2023-04-15T21:14:25.771Z,30.20
2023-04-15T21:16:58.162Z,30.15
2023-04-15T21:19:29.051Z,30.16
2023-04-15T21:21:59.403Z,30.16
2023-04-15T21:24:30.397Z,30.14
2023-04-15T21:27:02.778Z,30.16
2023-04-15T21:29:33.432Z,30.16
2023-04-15T21:32:04.139Z,30.16
2023-04-15T21:34:35.250Z,30.12
2023-04-15T21:37:05.992Z,30.10
2023-04-15T21:39:36.787Z,30.12
2023-04-15T21:42:07.159Z,30.11
2023-04-15T21:44:37.530Z,30.08
2023-04-15T21:47:08.766Z,30.10
2023-04-15T21:49:39.426Z,30.10
2023-04-15T21:52:09.863Z,30.10
2023-04-15T21:54:40.175Z,30.08
2023-04-15T21:57:10.776Z,30.09
2023-04-15T21:59:44.594Z,30.07
2023-04-15T22:02:15.738Z,30.08
2023-04-15T22:04:47.267Z,30.08
2023-04-15T22:07:19.311Z,30.10
2023-04-15T22:09:49.912Z,30.08
2023-04-15T22:12:20.204Z,30.10
2023-04-15T22:14:53.545Z,30.08
2023-04-15T22:17:24.198Z,30.09
2023-04-15T22:19:57.327Z,30.09
2023-04-15T22:22:35.464Z,30.07
2023-04-15T22:25:15.480Z,30.07
2023-04-15T22:27:45.852Z,30.08
2023-04-15T22:30:17.262Z,30.07
2023-04-15T22:32:48.812Z,30.03
2023-04-15T22:35:19.505Z,30.06
2023-04-15T22:37:50.123Z,30.04
2023-04-15T22:40:20.950Z,30.04
2023-04-15T22:42:51.659Z,30.06
2023-04-15T22:45:22.042Z,30.01
2023-04-15T22:47:52.436Z,30.07
2023-04-15T22:50:23.604Z,30.04
2023-04-15T22:52:54.273Z,30.03
2023-04-15T22:55:24.909Z,30.05
2023-04-15T22:57:55.341Z,30.05
2023-04-15T23:00:26.357Z,30.06
2023-04-15T23:02:56.877Z,30.08
2023-04-15T23:05:28.396Z,30.07
2023-04-15T23:07:59.583Z,30.11
2023-04-15T23:10:30.744Z,30.08
2023-04-15T23:13:01.861Z,30.11
2023-04-15T23:15:32.278Z,30.11
2023-04-15T23:18:03.303Z,30.10
2023-04-15T23:20:34.083Z,30.11
2023-04-15T23:23:04.546Z,30.16
2023-04-15T23:25:35.465Z,30.14
2023-04-15T23:28:06.680Z,30.14
2023-04-15T23:30:37.322Z,30.15
2023-04-15T23:33:08.104Z,30.19
2023-04-15T23:35:38.831Z,30.19
2023-04-15T23:38:09.713Z,30.18
2023-04-15T23:40:40.525Z,30.18
2023-04-15T23:43:11.598Z,30.19
2023-04-15T23:45:42.966Z,30.16
2023-04-15T23:48:16.339Z,30.19
2023-04-15T23:50:47.657Z,30.20
2023-04-15T23:53:20.961Z,30.24
2023-04-15T23:55:51.564Z,30.28
2023-04-15T23:58:22.510Z,30.32
